sensor_id;sensor_type;location;lat;lon;timestamp;P1;durP1;ratioP1;P2;durP2;ratioP2
11269;SDS011;5692;48.956;9.200;2022-09-28T00:00:10;159.50;;;151.85;;
11269;SDS011;5692;48.956;9.200;2022-09-28T00:02:36;143.25;;;136.38;;
11269;SDS011;5692;48.956;9.200;2022-09-28T00:05:03;149.35;;;142.20;;
11269;SDS011;5692;48.956;9.200;2022-09-28T00:07:29;147.55;;;140.45;;
11269;SDS011;5692;48.956;9.200;2022-09-28T00:09:55;141.55;;;134.75;;
11269;SDS011;5692;48.956;9.200;2022-09-28T00:12:21;151.55;;;144.25;;
11269;SDS011;5692;48.956;9.200;2022-09-28T00:14:47;150.85;;;143.63;;
11269;SDS011;5692;48.956;9.200;2022-09-28T00:17:13;154.33;;;146.93;;
11269;SDS011;5692;48.956;9.200;2022-09-28T00:19:41;153.20;;;145.90;;
11269;SDS011;5692;48.956;9.200;2022-09-28T00:22:08;162.35;;;154.57;;
11269;SDS011;5692;48.956;9.200;2022-09-28T00:24:34;149.88;;;142.68;;
11269;SDS011;5692;48.956;9.200;2022-09-28T00:27:00;145.95;;;138.95;;
11269;SDS011;5692;48.956;9.200;2022-09-28T00:29:31;156.65;;;149.15;;
11269;SDS011;5692;48.956;9.200;2022-09-28T00:31:59;159.40;;;151.80;;
11269;SDS011;5692;48.956;9.200;2022-09-28T00:34:27;157.40;;;149.90;;
11269;SDS011;5692;48.956;9.200;2022-09-28T00:36:55;155.40;;;147.95;;
11269;SDS011;5692;48.956;9.200;2022-09-28T00:39:21;155.98;;;148.48;;
11269;SDS011;5692;48.956;9.200;2022-09-28T00:41:47;144.23;;;137.32;;
11269;SDS011;5692;48.956;9.200;2022-09-28T00:46:44;158.38;;;150.77;;
11269;SDS011;5692;48.956;9.200;2022-09-28T00:49:11;148.35;;;141.23;;
11269;SDS011;5692;48.956;9.200;2022-09-28T00:51:39;152.27;;;144.98;;
11269;SDS011;5692;48.956;9.200;2022-09-28T00:54:07;149.68;;;142.50;;
11269;SDS011;5692;48.956;9.200;2022-09-28T00:56:37;147.65;;;140.55;;
11269;SDS011;5692;48.956;9.200;2022-09-28T00:59:05;152.90;;;145.60;;
11269;SDS011;5692;48.956;9.200;2022-09-28T01:01:35;144.73;;;137.82;;
11269;SDS011;5692;48.956;9.200;2022-09-28T01:04:01;156.25;;;148.80;;
11269;SDS011;5692;48.956;9.200;2022-09-28T01:06:31;155.73;;;148.27;;
11269;SDS011;5692;48.956;9.200;2022-09-28T01:08:58;152.10;;;144.80;;
11269;SDS011;5692;48.956;9.200;2022-09-28T01:11:27;165.73;;;157.80;;
11269;SDS011;5692;48.956;9.200;2022-09-28T01:13:55;160.90;;;153.20;;
11269;SDS011;5692;48.956;9.200;2022-09-28T01:21:21;155.45;;;148.00;;
11269;SDS011;5692;48.956;9.200;2022-09-28T01:28:52;159.10;;;151.50;;
11269;SDS011;5692;48.956;9.200;2022-09-28T01:31:23;147.68;;;140.57;;
11269;SDS011;5692;48.956;9.200;2022-09-28T01:33:55;137.35;;;130.75;;
11269;SDS011;5692;48.956;9.200;2022-09-28T01:36:24;131.05;;;124.75;;
11269;SDS011;5692;48.956;9.200;2022-09-28T01:38:57;156.38;;;148.88;;
11269;SDS011;5692;48.956;9.200;2022-09-28T01:41:25;142.05;;;135.25;;
11269;SDS011;5692;48.956;9.200;2022-09-28T01:43:58;133.75;;;127.35;;
11269;SDS011;5692;48.956;9.200;2022-09-28T01:46:34;110.47;;;105.18;;
11269;SDS011;5692;48.956;9.200;2022-09-28T01:49:04;125.35;;;119.35;;
11269;SDS011;5692;48.956;9.200;2022-09-28T01:51:35;129.25;;;123.05;;
11269;SDS011;5692;48.956;9.200;2022-09-28T01:54:11;132.65;;;126.25;;
11269;SDS011;5692;48.956;9.200;2022-09-28T01:56:38;133.52;;;127.13;;
11269;SDS011;5692;48.956;9.200;2022-09-28T01:59:15;138.82;;;132.13;;
11269;SDS011;5692;48.956;9.200;2022-09-28T02:01:54;133.45;;;127.05;;
11269;SDS011;5692;48.956;9.200;2022-09-28T02:04:23;137.27;;;130.68;;
11269;SDS011;5692;48.956;9.200;2022-09-28T02:06:52;145.52;;;138.55;;
11269;SDS011;5692;48.956;9.200;2022-09-28T02:09:27;138.68;;;132.00;;
11269;SDS011;5692;48.956;9.200;2022-09-28T02:11:58;129.40;;;123.20;;
11269;SDS011;5692;48.956;9.200;2022-09-28T02:14:26;139.07;;;132.40;;
11269;SDS011;5692;48.956;9.200;2022-09-28T02:16:54;138.05;;;131.43;;
11269;SDS011;5692;48.956;9.200;2022-09-28T02:19:21;129.13;;;122.93;;
11269;SDS011;5692;48.956;9.200;2022-09-28T02:24:53;130.13;;;123.90;;
11269;SDS011;5692;48.956;9.200;2022-09-28T02:27:35;140.30;;;133.57;;
11269;SDS011;5692;48.956;9.200;2022-09-28T02:30:03;132.73;;;126.32;;
11269;SDS011;5692;48.956;9.200;2022-09-28T02:32:30;144.23;;;137.32;;
11269;SDS011;5692;48.956;9.200;2022-09-28T02:34:57;142.35;;;135.55;;
11269;SDS011;5692;48.956;9.200;2022-09-28T02:37:24;138.73;;;132.02;;
11269;SDS011;5692;48.956;9.200;2022-09-28T02:39:50;145.95;;;138.95;;
11269;SDS011;5692;48.956;9.200;2022-09-28T02:42:32;143.30;;;136.40;;
11269;SDS011;5692;48.956;9.200;2022-09-28T02:58:02;144.68;;;137.75;;
11269;SDS011;5692;48.956;9.200;2022-09-28T03:00:30;143.70;;;136.80;;
11269;SDS011;5692;48.956;9.200;2022-09-28T03:03:03;144.75;;;137.85;;
11269;SDS011;5692;48.956;9.200;2022-09-28T03:06:07;141.57;;;134.77;;
11269;SDS011;5692;48.956;9.200;2022-09-28T03:11:11;154.40;;;147.00;;
11269;SDS011;5692;48.956;9.200;2022-09-28T03:13:36;159.68;;;152.02;;
11269;SDS011;5692;48.956;9.200;2022-09-28T03:16:06;144.80;;;137.85;;
11269;SDS011;5692;48.956;9.200;2022-09-28T03:18:33;147.27;;;140.18;;
11269;SDS011;5692;48.956;9.200;2022-09-28T03:20:59;151.47;;;144.17;;
11269;SDS011;5692;48.956;9.200;2022-09-28T03:23:25;150.02;;;142.82;;
11269;SDS011;5692;48.956;9.200;2022-09-28T03:25:51;140.35;;;133.63;;
11269;SDS011;5692;48.956;9.200;2022-09-28T03:28:17;132.43;;;126.05;;
11269;SDS011;5692;48.956;9.200;2022-09-28T03:30:45;137.43;;;130.82;;
11269;SDS011;5692;48.956;9.200;2022-09-28T03:33:11;141.98;;;135.18;;
11269;SDS011;5692;48.956;9.200;2022-09-28T03:35:37;142.40;;;135.57;;
11269;SDS011;5692;48.956;9.200;2022-09-28T03:38:03;140.70;;;133.95;;
11269;SDS011;5692;48.956;9.200;2022-09-28T03:40:29;140.32;;;133.63;;
11269;SDS011;5692;48.956;9.200;2022-09-28T03:42:55;134.70;;;128.20;;
11269;SDS011;5692;48.956;9.200;2022-09-28T03:45:21;134.48;;;128.02;;
11269;SDS011;5692;48.956;9.200;2022-09-28T03:47:47;137.17;;;130.57;;
11269;SDS011;5692;48.956;9.200;2022-09-28T03:50:13;137.30;;;130.70;;
11269;SDS011;5692;48.956;9.200;2022-09-28T03:52:39;131.13;;;124.82;;
11269;SDS011;5692;48.956;9.200;2022-09-28T03:55:05;132.55;;;126.15;;
11269;SDS011;5692;48.956;9.200;2022-09-28T03:57:32;134.05;;;127.65;;
11269;SDS011;5692;48.956;9.200;2022-09-28T03:59:58;143.80;;;136.90;;
11269;SDS011;5692;48.956;9.200;2022-09-28T04:02:24;146.30;;;139.30;;
11269;SDS011;5692;48.956;9.200;2022-09-28T04:04:49;139.15;;;132.45;;
11269;SDS011;5692;48.956;9.200;2022-09-28T04:07:15;146.53;;;139.53;;
11269;SDS011;5692;48.956;9.200;2022-09-28T04:09:41;142.35;;;135.55;;
11269;SDS011;5692;48.956;9.200;2022-09-28T04:12:07;153.27;;;145.93;;
11269;SDS011;5692;48.956;9.200;2022-09-28T04:14:33;145.50;;;138.50;;
11269;SDS011;5692;48.956;9.200;2022-09-28T04:16:59;153.55;;;146.20;;
11269;SDS011;5692;48.956;9.200;2022-09-28T04:19:25;143.38;;;136.48;;
11269;SDS011;5692;48.956;9.200;2022-09-28T04:21:52;147.48;;;140.38;;
11269;SDS011;5692;48.956;9.200;2022-09-28T04:24:18;144.10;;;137.18;;
11269;SDS011;5692;48.956;9.200;2022-09-28T04:26:44;151.52;;;144.25;;
11269;SDS011;5692;48.956;9.200;2022-09-28T04:29:10;147.35;;;140.25;;
11269;SDS011;5692;48.956;9.200;2022-09-28T04:31:46;162.27;;;154.50;;
11269;SDS011;5692;48.956;9.200;2022-09-28T04:34:14;137.07;;;130.48;;
11269;SDS011;5692;48.956;9.200;2022-09-28T04:36:41;137.88;;;131.27;;
11269;SDS011;5692;48.956;9.200;2022-09-28T04:39:08;145.57;;;138.57;;
11269;SDS011;5692;48.956;9.200;2022-09-28T04:41:34;144.23;;;137.32;;
11269;SDS011;5692;48.956;9.200;2022-09-28T04:44:00;134.73;;;128.23;;
11269;SDS011;5692;48.956;9.200;2022-09-28T04:46:26;142.73;;;135.88;;
11269;SDS011;5692;48.956;9.200;2022-09-28T04:48:52;150.07;;;142.88;;
11269;SDS011;5692;48.956;9.200;2022-09-28T04:51:18;137.27;;;130.67;;
11269;SDS011;5692;48.956;9.200;2022-09-28T04:53:44;145.40;;;138.45;;
11269;SDS011;5692;48.956;9.200;2022-09-28T04:56:11;147.20;;;140.13;;
11269;SDS011;5692;48.956;9.200;2022-09-28T04:58:37;152.30;;;145.00;;
11269;SDS011;5692;48.956;9.200;2022-09-28T05:01:05;147.70;;;140.60;;
11269;SDS011;5692;48.956;9.200;2022-09-28T05:03:31;129.63;;;123.43;;
11269;SDS011;5692;48.956;9.200;2022-09-28T05:05:58;144.70;;;137.75;;
11269;SDS011;5692;48.956;9.200;2022-09-28T05:08:25;154.13;;;146.73;;
11269;SDS011;5692;48.956;9.200;2022-09-28T05:10:58;152.25;;;144.95;;
11269;SDS011;5692;48.956;9.200;2022-09-28T05:13:24;157.95;;;150.38;;
11269;SDS011;5692;48.956;9.200;2022-09-28T05:15:51;157.93;;;150.35;;
11269;SDS011;5692;48.956;9.200;2022-09-28T05:18:18;159.10;;;151.50;;
11269;SDS011;5692;48.956;9.200;2022-09-28T05:20:44;164.23;;;156.35;;
11269;SDS011;5692;48.956;9.200;2022-09-28T05:23:11;155.43;;;147.98;;
11269;SDS011;5692;48.956;9.200;2022-09-28T05:25:38;156.02;;;148.55;;
11269;SDS011;5692;48.956;9.200;2022-09-28T05:28:04;149.93;;;142.73;;
11269;SDS011;5692;48.956;9.200;2022-09-28T05:30:32;147.27;;;140.18;;
11269;SDS011;5692;48.956;9.200;2022-09-28T05:32:58;167.48;;;159.45;;
11269;SDS011;5692;48.956;9.200;2022-09-28T05:35:24;149.68;;;142.48;;
11269;SDS011;5692;48.956;9.200;2022-09-28T05:37:50;136.73;;;130.17;;
11269;SDS011;5692;48.956;9.200;2022-09-28T05:40:16;151.40;;;144.15;;
11269;SDS011;5692;48.956;9.200;2022-09-28T05:42:42;139.70;;;133.00;;
11269;SDS011;5692;48.956;9.200;2022-09-28T05:45:09;142.63;;;135.77;;
11269;SDS011;5692;48.956;9.200;2022-09-28T05:47:38;153.48;;;146.10;;
11269;SDS011;5692;48.956;9.200;2022-09-28T05:50:06;146.25;;;139.25;;
11269;SDS011;5692;48.956;9.200;2022-09-28T05:52:32;144.13;;;137.23;;
11269;SDS011;5692;48.956;9.200;2022-09-28T05:54:58;146.18;;;139.18;;
11269;SDS011;5692;48.956;9.200;2022-09-28T05:57:24;138.18;;;131.55;;
11269;SDS011;5692;48.956;9.200;2022-09-28T05:59:50;156.05;;;148.55;;
11269;SDS011;5692;48.956;9.200;2022-09-28T06:02:16;147.43;;;140.32;;
11269;SDS011;5692;48.956;9.200;2022-09-28T06:04:42;153.77;;;146.38;;
11269;SDS011;5692;48.956;9.200;2022-09-28T06:07:08;149.45;;;142.25;;
11269;SDS011;5692;48.956;9.200;2022-09-28T06:09:34;127.57;;;121.47;;
11269;SDS011;5692;48.956;9.200;2022-09-28T06:12:00;135.68;;;129.18;;
11269;SDS011;5692;48.956;9.200;2022-09-28T06:14:26;147.00;;;139.95;;
11269;SDS011;5692;48.956;9.200;2022-09-28T06:16:52;140.50;;;133.80;;
11269;SDS011;5692;48.956;9.200;2022-09-28T06:19:18;139.30;;;132.60;;
11269;SDS011;5692;48.956;9.200;2022-09-28T06:21:45;144.37;;;137.43;;
11269;SDS011;5692;48.956;9.200;2022-09-28T06:24:11;137.40;;;130.80;;
11269;SDS011;5692;48.956;9.200;2022-09-28T06:26:38;122.38;;;116.47;;
11269;SDS011;5692;48.956;9.200;2022-09-28T06:29:04;128.00;;;121.88;;
11269;SDS011;5692;48.956;9.200;2022-09-28T06:31:30;142.82;;;135.98;;
11269;SDS011;5692;48.956;9.200;2022-09-28T06:33:56;147.30;;;140.23;;
11269;SDS011;5692;48.956;9.200;2022-09-28T06:36:27;149.70;;;142.50;;
11269;SDS011;5692;48.956;9.200;2022-09-28T06:38:54;140.20;;;133.50;;
11269;SDS011;5692;48.956;9.200;2022-09-28T06:41:20;137.40;;;130.80;;
11269;SDS011;5692;48.956;9.200;2022-09-28T06:43:47;146.80;;;139.75;;
11269;SDS011;5692;48.956;9.200;2022-09-28T06:46:13;134.63;;;128.13;;
11269;SDS011;5692;48.956;9.200;2022-09-28T06:48:39;133.48;;;127.07;;
11269;SDS011;5692;48.956;9.200;2022-09-28T06:51:05;129.70;;;123.47;;
11269;SDS011;5692;48.956;9.200;2022-09-28T06:53:31;138.00;;;131.40;;
11269;SDS011;5692;48.956;9.200;2022-09-28T06:55:57;136.68;;;130.13;;
11269;SDS011;5692;48.956;9.200;2022-09-28T06:58:24;137.50;;;130.90;;
11269;SDS011;5692;48.956;9.200;2022-09-28T07:00:52;138.07;;;131.48;;
11269;SDS011;5692;48.956;9.200;2022-09-28T07:03:19;133.07;;;126.68;;
11269;SDS011;5692;48.956;9.200;2022-09-28T07:05:47;135.75;;;129.25;;
11269;SDS011;5692;48.956;9.200;2022-09-28T07:08:14;138.68;;;132.02;;
11269;SDS011;5692;48.956;9.200;2022-09-28T07:10:43;137.55;;;130.95;;
11269;SDS011;5692;48.956;9.200;2022-09-28T07:13:10;135.23;;;128.73;;
11269;SDS011;5692;48.956;9.200;2022-09-28T07:15:37;131.45;;;125.15;;
11269;SDS011;5692;48.956;9.200;2022-09-28T07:18:04;117.20;;;111.60;;
11269;SDS011;5692;48.956;9.200;2022-09-28T07:20:33;131.60;;;125.30;;
11269;SDS011;5692;48.956;9.200;2022-09-28T07:23:00;119.88;;;114.10;;
11269;SDS011;5692;48.956;9.200;2022-09-28T07:25:26;137.07;;;130.48;;
11269;SDS011;5692;48.956;9.200;2022-09-28T07:27:57;138.50;;;131.85;;
11269;SDS011;5692;48.956;9.200;2022-09-28T07:30:23;131.40;;;125.10;;
11269;SDS011;5692;48.956;9.200;2022-09-28T07:32:50;143.40;;;136.50;;
11269;SDS011;5692;48.956;9.200;2022-09-28T07:35:16;144.10;;;137.18;;
11269;SDS011;5692;48.956;9.200;2022-09-28T07:37:42;152.07;;;144.77;;
11269;SDS011;5692;48.956;9.200;2022-09-28T07:40:08;155.20;;;147.77;;
11269;SDS011;5692;48.956;9.200;2022-09-28T07:42:53;159.43;;;151.77;;
11269;SDS011;5692;48.956;9.200;2022-09-28T07:45:19;151.30;;;144.02;;
11269;SDS011;5692;48.956;9.200;2022-09-28T07:47:47;151.57;;;144.30;;
11269;SDS011;5692;48.956;9.200;2022-09-28T07:50:16;151.38;;;144.13;;
11269;SDS011;5692;48.956;9.200;2022-09-28T07:52:42;164.13;;;156.25;;
11269;SDS011;5692;48.956;9.200;2022-09-28T07:55:08;152.70;;;145.40;;
11269;SDS011;5692;48.956;9.200;2022-09-28T07:57:34;143.13;;;136.23;;
11269;SDS011;5692;48.956;9.200;2022-09-28T08:00:00;150.40;;;143.20;;
11269;SDS011;5692;48.956;9.200;2022-09-28T08:02:28;138.32;;;131.70;;
11269;SDS011;5692;48.956;9.200;2022-09-28T08:04:57;153.65;;;146.27;;
11269;SDS011;5692;48.956;9.200;2022-09-28T08:07:23;154.55;;;147.15;;
11269;SDS011;5692;48.956;9.200;2022-09-28T08:09:49;157.73;;;150.13;;
11269;SDS011;5692;48.956;9.200;2022-09-28T08:12:15;148.35;;;141.25;;
11269;SDS011;5692;48.956;9.200;2022-09-28T08:14:51;149.63;;;142.43;;
11269;SDS011;5692;48.956;9.200;2022-09-28T08:17:17;156.93;;;149.40;;
11269;SDS011;5692;48.956;9.200;2022-09-28T08:19:50;154.98;;;147.57;;
11269;SDS011;5692;48.956;9.200;2022-09-28T08:22:35;151.07;;;143.82;;
11269;SDS011;5692;48.956;9.200;2022-09-28T08:25:01;144.07;;;137.18;;
11269;SDS011;5692;48.956;9.200;2022-09-28T08:27:27;147.90;;;140.80;;
11269;SDS011;5692;48.956;9.200;2022-09-28T08:29:53;136.65;;;130.10;;
11269;SDS011;5692;48.956;9.200;2022-09-28T08:32:19;146.23;;;139.23;;
11269;SDS011;5692;48.956;9.200;2022-09-28T08:34:45;143.50;;;136.63;;
11269;SDS011;5692;48.956;9.200;2022-09-28T08:37:11;151.23;;;143.98;;
11269;SDS011;5692;48.956;9.200;2022-09-28T08:39:37;153.35;;;146.00;;
11269;SDS011;5692;48.956;9.200;2022-09-28T08:44:52;159.05;;;151.45;;
11269;SDS011;5692;48.956;9.200;2022-09-28T08:47:29;155.20;;;147.75;;
11269;SDS011;5692;48.956;9.200;2022-09-28T08:50:17;161.02;;;153.32;;
11269;SDS011;5692;48.956;9.200;2022-09-28T08:52:46;163.75;;;155.90;;
11269;SDS011;5692;48.956;9.200;2022-09-28T08:57:43;182.20;;;173.50;;
11269;SDS011;5692;48.956;9.200;2022-09-28T09:03:17;166.40;;;158.40;;
11269;SDS011;5692;48.956;9.200;2022-09-28T09:21:51;158.32;;;150.73;;
11269;SDS011;5692;48.956;9.200;2022-09-28T09:24:24;163.15;;;155.35;;
11269;SDS011;5692;48.956;9.200;2022-09-28T09:32:28;166.50;;;158.50;;
11269;SDS011;5692;48.956;9.200;2022-09-28T09:47:30;200.55;;;190.95;;
11269;SDS011;5692;48.956;9.200;2022-09-28T09:50:13;185.45;;;176.57;;
11269;SDS011;5692;48.956;9.200;2022-09-28T09:52:53;200.40;;;190.80;;
11269;SDS011;5692;48.956;9.200;2022-09-28T09:57:54;208.90;;;198.90;;
11269;SDS011;5692;48.956;9.200;2022-09-28T10:00:23;205.52;;;195.70;;
11269;SDS011;5692;48.956;9.200;2022-09-28T10:02:49;219.33;;;208.87;;
11269;SDS011;5692;48.956;9.200;2022-09-28T10:05:23;218.35;;;207.90;;
11269;SDS011;5692;48.956;9.200;2022-09-28T10:07:53;229.77;;;218.77;;
11269;SDS011;5692;48.956;9.200;2022-09-28T10:10:24;237.77;;;226.43;;
11269;SDS011;5692;48.956;9.200;2022-09-28T10:12:50;224.48;;;213.75;;
11269;SDS011;5692;48.956;9.200;2022-09-28T10:15:25;240.75;;;229.25;;
11269;SDS011;5692;48.956;9.200;2022-09-28T10:17:52;218.63;;;208.18;;
11269;SDS011;5692;48.956;9.200;2022-09-28T10:20:19;227.15;;;216.30;;
11269;SDS011;5692;48.956;9.200;2022-09-28T10:22:45;250.48;;;238.50;;
11269;SDS011;5692;48.956;9.200;2022-09-28T10:25:12;216.65;;;206.30;;
11269;SDS011;5692;48.956;9.200;2022-09-28T10:27:39;224.02;;;213.32;;
11269;SDS011;5692;48.956;9.200;2022-09-28T10:32:48;229.73;;;218.73;;
11269;SDS011;5692;48.956;9.200;2022-09-28T10:40:24;232.75;;;221.60;;
11269;SDS011;5692;48.956;9.200;2022-09-28T10:43:00;213.85;;;203.63;;
11269;SDS011;5692;48.956;9.200;2022-09-28T10:45:27;233.05;;;221.90;;
11269;SDS011;5692;48.956;9.200;2022-09-28T10:47:57;231.15;;;220.10;;
11269;SDS011;5692;48.956;9.200;2022-09-28T10:50:26;215.38;;;205.07;;
11269;SDS011;5692;48.956;9.200;2022-09-28T10:52:52;224.13;;;213.40;;
11269;SDS011;5692;48.956;9.200;2022-09-28T10:57:47;216.23;;;205.88;;
11269;SDS011;5692;48.956;9.200;2022-09-28T11:00:36;232.05;;;220.95;;
11269;SDS011;5692;48.956;9.200;2022-09-28T11:03:00;226.35;;;215.52;;
11269;SDS011;5692;48.956;9.200;2022-09-28T11:05:27;231.93;;;220.82;;
11269;SDS011;5692;48.956;9.200;2022-09-28T11:07:54;228.60;;;217.70;;
11269;SDS011;5692;48.956;9.200;2022-09-28T11:10:21;249.05;;;237.15;;
11269;SDS011;5692;48.956;9.200;2022-09-28T11:12:49;240.85;;;229.35;;
11269;SDS011;5692;48.956;9.200;2022-09-28T11:15:16;238.80;;;227.40;;
11269;SDS011;5692;48.956;9.200;2022-09-28T11:17:43;254.90;;;242.70;;
11269;SDS011;5692;48.956;9.200;2022-09-28T11:22:51;247.43;;;235.57;;
11269;SDS011;5692;48.956;9.200;2022-09-28T11:32:48;268.55;;;255.70;;
11269;SDS011;5692;48.956;9.200;2022-09-28T11:35:18;247.80;;;235.95;;
11269;SDS011;5692;48.956;9.200;2022-09-28T11:37:57;262.65;;;250.10;;
11269;SDS011;5692;48.956;9.200;2022-09-28T11:40:39;258.17;;;245.82;;
11269;SDS011;5692;48.956;9.200;2022-09-28T11:48:16;250.45;;;238.45;;
11269;SDS011;5692;48.956;9.200;2022-09-28T11:55:43;250.63;;;238.65;;
11269;SDS011;5692;48.956;9.200;2022-09-28T12:00:37;232.50;;;221.40;;
11269;SDS011;5692;48.956;9.200;2022-09-28T12:03:14;236.70;;;225.40;;
11269;SDS011;5692;48.956;9.200;2022-09-28T12:05:51;256.92;;;244.63;;
11269;SDS011;5692;48.956;9.200;2022-09-28T12:08:25;243.55;;;231.90;;
11269;SDS011;5692;48.956;9.200;2022-09-28T12:13:24;258.00;;;245.70;;
11269;SDS011;5692;48.956;9.200;2022-09-28T12:23:46;14.65;;;2.83;;
11269;SDS011;5692;48.956;9.200;2022-09-28T12:26:19;7.78;;;1.27;;
11269;SDS011;5692;48.956;9.200;2022-09-28T12:28:47;5.30;;;0.60;;
11269;SDS011;5692;48.956;9.200;2022-09-28T12:31:16;10.85;;;1.00;;
11269;SDS011;5692;48.956;9.200;2022-09-28T12:33:44;90.32;;;85.97;;
11269;SDS011;5692;48.956;9.200;2022-09-28T12:49:07;230.13;;;219.13;;
11269;SDS011;5692;48.956;9.200;2022-09-28T12:57:03;245.55;;;233.80;;
11269;SDS011;5692;48.956;9.200;2022-09-28T12:59:37;238.25;;;226.85;;
11269;SDS011;5692;48.956;9.200;2022-09-28T13:07:39;237.98;;;226.60;;
11269;SDS011;5692;48.956;9.200;2022-09-28T13:18:17;222.23;;;211.60;;
11269;SDS011;5692;48.956;9.200;2022-09-28T13:20:50;231.05;;;220.00;;
11269;SDS011;5692;48.956;9.200;2022-09-28T13:23:26;214.15;;;203.90;;
11269;SDS011;5692;48.956;9.200;2022-09-28T13:28:19;209.18;;;199.18;;
11269;SDS011;5692;48.956;9.200;2022-09-28T13:30:46;210.45;;;200.35;;
11269;SDS011;5692;48.956;9.200;2022-09-28T13:33:28;202.52;;;192.82;;
11269;SDS011;5692;48.956;9.200;2022-09-28T13:35:55;227.95;;;217.05;;
11269;SDS011;5692;48.956;9.200;2022-09-28T13:46:19;226.23;;;215.40;;
11269;SDS011;5692;48.956;9.200;2022-09-28T13:49:04;226.52;;;215.70;;
11269;SDS011;5692;48.956;9.200;2022-09-28T13:54:36;242.82;;;231.23;;
11269;SDS011;5692;48.956;9.200;2022-09-28T13:59:35;220.05;;;209.55;;
11269;SDS011;5692;48.956;9.200;2022-09-28T14:02:16;218.60;;;208.13;;
11269;SDS011;5692;48.956;9.200;2022-09-28T14:09:48;227.07;;;216.23;;
11269;SDS011;5692;48.956;9.200;2022-09-28T14:14:57;223.47;;;212.77;;
11269;SDS011;5692;48.956;9.200;2022-09-28T14:19:59;253.63;;;241.50;;
11269;SDS011;5692;48.956;9.200;2022-09-28T14:25:06;4.97;;;1.60;;
11269;SDS011;5692;48.956;9.200;2022-09-28T14:35:18;9.27;;;2.85;;
11269;SDS011;5692;48.956;9.200;2022-09-28T14:37:48;5.03;;;1.27;;
11269;SDS011;5692;48.956;9.200;2022-09-28T14:49:41;4.10;;;0.90;;
11269;SDS011;5692;48.956;9.200;2022-09-28T14:54:02;9.48;;;1.30;;
11269;SDS011;5692;48.956;9.200;2022-09-28T14:56:30;130.85;;;124.57;;
11269;SDS011;5692;48.956;9.200;2022-09-28T14:59:00;217.10;;;206.70;;
11269;SDS011;5692;48.956;9.200;2022-09-28T15:01:26;204.30;;;194.50;;
11269;SDS011;5692;48.956;9.200;2022-09-28T15:03:55;200.68;;;191.07;;
11269;SDS011;5692;48.956;9.200;2022-09-28T15:06:21;213.40;;;203.20;;
11269;SDS011;5692;48.956;9.200;2022-09-28T15:08:49;204.18;;;194.38;;
11269;SDS011;5692;48.956;9.200;2022-09-28T15:11:22;197.43;;;187.98;;
11269;SDS011;5692;48.956;9.200;2022-09-28T15:13:49;202.73;;;193.02;;
11269;SDS011;5692;48.956;9.200;2022-09-28T15:16:21;210.80;;;200.73;;
11269;SDS011;5692;48.956;9.200;2022-09-28T15:18:53;194.55;;;185.25;;
11269;SDS011;5692;48.956;9.200;2022-09-28T15:21:22;191.02;;;181.90;;
11269;SDS011;5692;48.956;9.200;2022-09-28T15:23:48;196.60;;;187.20;;
11269;SDS011;5692;48.956;9.200;2022-09-28T15:28:46;192.57;;;183.35;;
11269;SDS011;5692;48.956;9.200;2022-09-28T15:31:20;194.48;;;185.18;;
11269;SDS011;5692;48.956;9.200;2022-09-28T15:33:46;198.68;;;189.18;;
11269;SDS011;5692;48.956;9.200;2022-09-28T15:36:41;200.48;;;190.88;;
11269;SDS011;5692;48.956;9.200;2022-09-28T15:39:14;187.82;;;178.82;;
11269;SDS011;5692;48.956;9.200;2022-09-28T15:41:43;182.45;;;173.75;;
11269;SDS011;5692;48.956;9.200;2022-09-28T15:46:43;194.07;;;184.77;;
11269;SDS011;5692;48.956;9.200;2022-09-28T15:49:33;200.23;;;190.65;;
11269;SDS011;5692;48.956;9.200;2022-09-28T15:51:57;195.02;;;185.73;;
11269;SDS011;5692;48.956;9.200;2022-09-28T15:54:26;184.10;;;175.27;;
11269;SDS011;5692;48.956;9.200;2022-09-28T15:56:59;195.15;;;185.80;;
11269;SDS011;5692;48.956;9.200;2022-09-28T16:02:08;202.00;;;192.35;;
11269;SDS011;5692;48.956;9.200;2022-09-28T16:04:35;209.70;;;199.70;;
11269;SDS011;5692;48.956;9.200;2022-09-28T16:09:51;189.63;;;180.55;;
11269;SDS011;5692;48.956;9.200;2022-09-28T16:12:18;191.18;;;182.02;;
11269;SDS011;5692;48.956;9.200;2022-09-28T16:14:49;194.43;;;185.13;;
11269;SDS011;5692;48.956;9.200;2022-09-28T16:17:17;183.05;;;174.25;;
11269;SDS011;5692;48.956;9.200;2022-09-28T16:19:44;193.05;;;183.82;;
11269;SDS011;5692;48.956;9.200;2022-09-28T16:22:15;200.98;;;191.35;;
11269;SDS011;5692;48.956;9.200;2022-09-28T16:24:55;199.35;;;189.80;;
11269;SDS011;5692;48.956;9.200;2022-09-28T16:27:23;204.02;;;194.25;;
11269;SDS011;5692;48.956;9.200;2022-09-28T16:32:49;194.63;;;185.32;;
11269;SDS011;5692;48.956;9.200;2022-09-28T16:35:17;179.65;;;171.05;;
11269;SDS011;5692;48.956;9.200;2022-09-28T16:37:47;186.43;;;177.52;;
11269;SDS011;5692;48.956;9.200;2022-09-28T16:40:14;181.02;;;172.32;;
11269;SDS011;5692;48.956;9.200;2022-09-28T16:42:40;186.73;;;177.80;;
11269;SDS011;5692;48.956;9.200;2022-09-28T16:45:09;191.70;;;182.52;;
11269;SDS011;5692;48.956;9.200;2022-09-28T16:47:35;194.55;;;185.25;;
11269;SDS011;5692;48.956;9.200;2022-09-28T16:50:04;185.45;;;176.57;;
11269;SDS011;5692;48.956;9.200;2022-09-28T16:52:30;181.25;;;172.57;;
11269;SDS011;5692;48.956;9.200;2022-09-28T16:55:16;173.90;;;165.60;;
11269;SDS011;5692;48.956;9.200;2022-09-28T16:57:45;180.52;;;171.88;;
11269;SDS011;5692;48.956;9.200;2022-09-28T17:00:16;175.00;;;166.60;;
11269;SDS011;5692;48.956;9.200;2022-09-28T17:02:45;179.10;;;170.50;;
11269;SDS011;5692;48.956;9.200;2022-09-28T17:05:12;173.68;;;165.38;;
11269;SDS011;5692;48.956;9.200;2022-09-28T17:07:40;185.90;;;177.00;;
11269;SDS011;5692;48.956;9.200;2022-09-28T17:10:28;192.20;;;183.00;;
11269;SDS011;5692;48.956;9.200;2022-09-28T17:12:55;179.50;;;170.90;;
11269;SDS011;5692;48.956;9.200;2022-09-28T17:15:21;168.07;;;160.02;;
11269;SDS011;5692;48.956;9.200;2022-09-28T17:17:47;172.60;;;164.30;;
11269;SDS011;5692;48.956;9.200;2022-09-28T17:20:19;178.48;;;169.93;;
11269;SDS011;5692;48.956;9.200;2022-09-28T17:22:47;179.50;;;170.90;;
11269;SDS011;5692;48.956;9.200;2022-09-28T17:25:13;185.93;;;177.02;;
11269;SDS011;5692;48.956;9.200;2022-09-28T17:27:39;181.45;;;172.75;;
11269;SDS011;5692;48.956;9.200;2022-09-28T17:30:07;186.00;;;177.07;;
11269;SDS011;5692;48.956;9.200;2022-09-28T17:32:33;183.63;;;174.82;;
11269;SDS011;5692;48.956;9.200;2022-09-28T17:34:59;177.68;;;169.18;;
11269;SDS011;5692;48.956;9.200;2022-09-28T17:37:25;185.93;;;177.03;;
11269;SDS011;5692;48.956;9.200;2022-09-28T17:39:54;192.32;;;183.10;;
11269;SDS011;5692;48.956;9.200;2022-09-28T17:42:20;198.00;;;188.53;;
11269;SDS011;5692;48.956;9.200;2022-09-28T17:44:45;172.43;;;164.17;;
11269;SDS011;5692;48.956;9.200;2022-09-28T17:47:11;183.20;;;174.43;;
11269;SDS011;5692;48.956;9.200;2022-09-28T17:49:37;187.13;;;178.15;;
11269;SDS011;5692;48.956;9.200;2022-09-28T17:52:04;180.57;;;171.93;;